createdAt,value
2023-07-14T00:00:49.492Z,101295.25
2023-07-14T00:03:19.101Z,101296.63
2023-07-14T00:05:48.332Z,101300.53
2023-07-14T00:08:20.726Z,101296.34
2023-07-14T00:10:58.503Z,101290.06
2023-07-14T00:13:31.933Z,101289.97
2023-07-14T00:16:04.413Z,101293.47
2023-07-14T00:18:35.620Z,101291.91
2023-07-14T00:21:05.032Z,101293.97
2023-07-14T00:23:34.147Z,101282.47
2023-07-14T00:26:03.513Z,101288.09
2023-07-14T00:28:32.855Z,101283.84
2023-07-14T00:31:01.858Z,101286.41
2023-07-14T00:33:31.743Z,101284.00
2023-07-14T00:36:02.845Z,101290.03
2023-07-14T00:38:35.121Z,101285.00
2023-07-14T00:41:10.251Z,101273.03
2023-07-14T00:43:39.881Z,101284.47
2023-07-14T00:46:24.130Z,101276.56
2023-07-14T00:48:57.440Z,101276.16
2023-07-14T00:51:31.396Z,101279.91
2023-07-14T00:54:00.452Z,101283.59
2023-07-14T00:56:46.980Z,101271.75
2023-07-14T00:59:21.067Z,101270.84
2023-07-14T01:02:25.442Z,101262.91
2023-07-14T01:05:09.840Z,101266.16
2023-07-14T01:07:45.614Z,101264.19
2023-07-14T01:10:21.007Z,101255.81
2023-07-14T01:12:54.885Z,101259.41
2023-07-14T01:15:24.530Z,101259.00
2023-07-14T01:17:55.534Z,101256.50
2023-07-14T01:20:24.836Z,101254.56
2023-07-14T01:23:26.265Z,101251.88
2023-07-14T01:26:25.392Z,101251.72
2023-07-14T01:29:18.127Z,101251.25
2023-07-14T01:36:30.759Z,101249.56
2023-07-14T01:46:33.985Z,101244.13
2023-07-14T01:50:06.046Z,101244.69
2023-07-14T01:52:44.389Z,101242.34
2023-07-14T01:56:26.573Z,101251.38
2023-07-14T02:10:40.680Z,101252.38
2023-07-14T02:14:30.683Z,101253.50
2023-07-14T02:17:31.514Z,101248.84
2023-07-14T02:20:51.378Z,101247.69
2023-07-14T02:24:16.358Z,101243.78
2023-07-14T02:27:30.074Z,101245.06
2023-07-14T02:30:55.725Z,101254.63
2023-07-14T02:38:50.261Z,101253.41
2023-07-14T02:48:42.126Z,101257.72
2023-07-14T02:52:06.925Z,101257.81
2023-07-14T02:58:24.197Z,101254.88
2023-07-14T03:00:39.502Z,101251.13
2023-07-14T03:01:13.668Z,101248.03
2023-07-14T03:07:48.080Z,101244.13
2023-07-14T03:17:29.149Z,101244.84
2023-07-14T03:23:02.668Z,101253.88
2023-07-14T03:23:47.847Z,101248.19
2023-07-14T03:27:05.283Z,101253.09
2023-07-14T03:30:25.365Z,101252.34
2023-07-14T03:35:08.923Z,101261.94
2023-07-14T03:40:27.618Z,101264.31
2023-07-14T03:43:23.833Z,101258.50
2023-07-14T03:46:30.699Z,101264.16
2023-07-14T03:49:55.846Z,101260.78
2023-07-14T03:52:46.111Z,101256.88
2023-07-14T03:55:59.995Z,101260.41
2023-07-14T03:58:30.121Z,101257.03
2023-07-14T04:01:09.324Z,101273.63
2023-07-14T04:03:44.175Z,101268.16
2023-07-14T04:06:29.908Z,101277.63
2023-07-14T04:09:06.116Z,101282.34
2023-07-14T04:11:41.170Z,101286.22
2023-07-14T04:14:22.328Z,101293.50
2023-07-14T04:17:00.772Z,101294.38
2023-07-14T04:20:27.263Z,101294.28
2023-07-14T04:22:58.795Z,101298.22
2023-07-14T04:25:43.334Z,101300.72
2023-07-14T04:28:14.831Z,101300.69
2023-07-14T04:30:57.411Z,101303.94
2023-07-14T04:33:33.652Z,101303.69
2023-07-14T04:36:18.544Z,101306.75
2023-07-14T04:39:07.557Z,101311.16
2023-07-14T04:41:39.797Z,101319.75
2023-07-14T04:44:15.557Z,101320.22
2023-07-14T04:46:51.544Z,101325.41
2023-07-14T04:49:29.776Z,101329.09
2023-07-14T04:52:09.130Z,101325.69
2023-07-14T04:54:49.673Z,101330.16
2023-07-14T04:57:21.975Z,101335.16
2023-07-14T04:59:58.542Z,101329.25
2023-07-14T05:02:27.877Z,101331.31
2023-07-14T05:05:19.494Z,101341.34
2023-07-14T05:07:55.110Z,101341.53
2023-07-14T05:10:30.530Z,101343.41
2023-07-14T05:13:23.202Z,101345.44
2023-07-14T05:16:17.560Z,101344.88
2023-07-14T05:18:56.214Z,101349.16
2023-07-14T05:21:30.691Z,101350.22
2023-07-14T05:24:06.257Z,101348.47
2023-07-14T05:26:37.450Z,101351.97
2023-07-14T05:29:15.623Z,101353.94
2023-07-14T05:31:56.186Z,101355.50
2023-07-14T05:34:28.342Z,101361.84
2023-07-14T05:37:00.204Z,101366.53
2023-07-14T05:39:32.853Z,101365.31
2023-07-14T05:42:06.114Z,101369.81
2023-07-14T05:44:35.373Z,101378.16
2023-07-14T05:47:07.265Z,101374.09
2023-07-14T05:49:42.679Z,101388.09
2023-07-14T05:52:16.792Z,101387.69
2023-07-14T05:54:46.481Z,101388.81
2023-07-14T05:57:24.348Z,101380.63
2023-07-14T06:00:07.132Z,101384.81
2023-07-14T06:03:00.839Z,101393.88
2023-07-14T06:05:39.274Z,101390.81
2023-07-14T06:08:24.867Z,101393.72
2023-07-14T06:11:20.264Z,101391.13
2023-07-14T06:13:49.595Z,101399.94
2023-07-14T06:16:27.395Z,101395.22
2023-07-14T06:18:59.375Z,101397.09
2023-07-14T06:21:31.731Z,101397.22
2023-07-14T06:24:15.540Z,101395.84
2023-07-14T06:27:10.043Z,101410.63
2023-07-14T06:29:47.501Z,101410.88
2023-07-14T06:32:19.691Z,101416.69
2023-07-14T06:35:02.149Z,101419.44
2023-07-14T06:37:36.406Z,101413.69
2023-07-14T06:40:07.084Z,101410.41
2023-07-14T06:42:45.004Z,101417.13
2023-07-14T06:45:20.178Z,101425.22
2023-07-14T06:47:49.596Z,101426.88
2023-07-14T06:50:26.241Z,101432.59
2023-07-14T06:52:56.799Z,101432.69
2023-07-14T06:55:28.348Z,101432.03
2023-07-14T06:58:48.707Z,101431.00
2023-07-14T07:01:21.336Z,101440.09
2023-07-14T07:03:55.566Z,101440.66
2023-07-14T07:06:25.135Z,101429.94
2023-07-14T07:09:00.491Z,101437.41
2023-07-14T07:11:36.294Z,101447.63
2023-07-14T07:14:26.100Z,101438.50
2023-07-14T07:16:56.048Z,101439.91
2023-07-14T07:19:26.422Z,101442.34
2023-07-14T07:22:07.145Z,101445.97
2023-07-14T07:24:43.149Z,101442.44
2023-07-14T07:27:14.462Z,101448.78
2023-07-14T07:29:44.967Z,101455.19
2023-07-14T07:32:36.721Z,101456.19
2023-07-14T07:35:21.362Z,101455.34
2023-07-14T07:37:57.682Z,101451.03
2023-07-14T07:40:31.774Z,101453.81
2023-07-14T07:43:09.265Z,101452.03
2023-07-14T07:45:51.120Z,101456.13
2023-07-14T07:48:20.465Z,101452.22
2023-07-14T07:50:49.714Z,101458.00
2023-07-14T07:53:23.316Z,101460.56
2023-07-14T07:55:56.946Z,101456.44
2023-07-14T07:58:26.918Z,101467.31
2023-07-14T08:01:03.185Z,101460.06
2023-07-14T08:03:33.429Z,101459.50
2023-07-14T08:06:05.043Z,101463.94
2023-07-14T08:08:38.028Z,101466.38
2023-07-14T08:11:21.864Z,101468.84
2023-07-14T08:13:53.569Z,101468.97
2023-07-14T08:16:27.708Z,101476.91
2023-07-14T08:18:57.159Z,101467.63
2023-07-14T08:21:30.874Z,101468.00
2023-07-14T08:24:03.604Z,101474.41
2023-07-14T08:26:36.453Z,101470.44
2023-07-14T08:29:09.732Z,101463.94
2023-07-14T08:31:46.356Z,101463.19
2023-07-14T08:34:15.562Z,101463.63
2023-07-14T08:36:51.330Z,101469.66
2023-07-14T08:39:21.318Z,101465.78
2023-07-14T08:42:00.684Z,101467.06
2023-07-14T08:45:14.080Z,101471.41
2023-07-14T08:47:49.042Z,101472.19
2023-07-14T08:50:26.892Z,101465.06
2023-07-14T08:53:06.711Z,101470.66
2023-07-14T08:55:44.806Z,101475.22
2023-07-14T08:58:27.410Z,101476.50
2023-07-14T09:01:12.954Z,101474.91
2023-07-14T09:03:55.856Z,101481.25
2023-07-14T09:06:40.387Z,101473.28
2023-07-14T09:09:46.103Z,101484.53
2023-07-14T09:12:26.961Z,101486.13
2023-07-14T09:15:08.007Z,101478.03
2023-07-14T09:17:52.671Z,101478.03
2023-07-14T09:20:51.001Z,101484.34
2023-07-14T09:23:26.343Z,101485.22
2023-07-14T09:29:50.658Z,101479.72
2023-07-14T09:32:26.381Z,101476.28
2023-07-14T09:35:10.143Z,101474.00
2023-07-14T09:37:52.585Z,101473.22
2023-07-14T09:40:37.438Z,101476.81
2023-07-14T09:43:08.419Z,101474.41
2023-07-14T09:45:46.688Z,101466.38
2023-07-14T09:48:31.436Z,101480.78
2023-07-14T09:51:12.095Z,101488.72
2023-07-14T09:54:02.100Z,101481.53
2023-07-14T09:56:42.359Z,101477.56
2023-07-14T09:59:25.379Z,101479.13
2023-07-14T10:01:58.991Z,101486.38
2023-07-14T10:04:34.330Z,101476.78
2023-07-14T10:07:33.754Z,101483.25
2023-07-14T10:10:17.283Z,101484.84
2023-07-14T10:12:56.335Z,101480.03
2023-07-14T10:15:27.888Z,101479.22
2023-07-14T10:18:10.120Z,101475.25
2023-07-14T10:20:42.136Z,101479.66
2023-07-14T10:23:21.478Z,101475.28
2023-07-14T10:25:56.742Z,101477.28
2023-07-14T10:28:49.637Z,101459.34
2023-07-14T10:31:39.425Z,101471.00
2023-07-14T10:34:31.203Z,101461.78
2023-07-14T10:37:06.627Z,101464.22
2023-07-14T10:39:55.392Z,101464.63
2023-07-14T10:42:36.892Z,101467.84
2023-07-14T10:45:16.031Z,101469.81
2023-07-14T10:48:18.800Z,101459.06
2023-07-14T10:50:59.331Z,101472.25
2023-07-14T10:53:51.597Z,101469.06
2023-07-14T10:56:36.675Z,101459.50
2023-07-14T10:59:20.407Z,101464.31
2023-07-14T11:02:22.215Z,101456.72
2023-07-14T11:05:05.708Z,101457.91
2023-07-14T11:07:39.779Z,101456.31
2023-07-14T11:10:35.313Z,101449.94
2023-07-14T11:13:25.505Z,101447.53
2023-07-14T11:16:07.347Z,101449.56
2023-07-14T11:19:09.001Z,101445.97
2023-07-14T11:21:57.389Z,101436.38
2023-07-14T11:28:13.302Z,101436.00
2023-07-14T11:30:59.226Z,101430.00
2023-07-14T11:34:16.212Z,101433.19
2023-07-14T11:37:11.277Z,101435.59
2023-07-14T11:40:02.363Z,101430.41
2023-07-14T11:42:46.218Z,101433.19
2023-07-14T11:45:43.991Z,101435.19
2023-07-14T11:48:41.097Z,101427.63
2023-07-14T11:51:24.856Z,101430.78
2023-07-14T11:54:29.100Z,101433.19
2023-07-14T11:57:15.614Z,101429.22
2023-07-14T12:00:25.521Z,101430.41
2023-07-14T12:03:54.698Z,101426.00
2023-07-14T12:07:13.274Z,101422.84
2023-07-14T12:10:02.689Z,101424.44
2023-07-14T12:12:35.378Z,101421.63
2023-07-14T12:15:26.556Z,101419.63
2023-07-14T12:17:55.800Z,101422.44
2023-07-14T12:20:33.555Z,101421.22
2023-07-14T12:23:47.319Z,101424.03
2023-07-14T12:26:55.722Z,101423.63
2023-07-14T12:29:44.368Z,101424.44
2023-07-14T12:32:24.686Z,101416.03
2023-07-14T12:34:53.901Z,101415.25
2023-07-14T12:37:24.221Z,101422.03
2023-07-14T12:39:55.551Z,101432.41
2023-07-14T12:42:24.692Z,101434.00
2023-07-14T12:45:00.873Z,101430.00
2023-07-14T12:47:34.312Z,101427.59
2023-07-14T12:50:04.240Z,101433.22
2023-07-14T12:53:19.139Z,101428.41
2023-07-14T12:55:47.226Z,101426.75
2023-07-14T12:58:34.347Z,101426.75
2023-07-14T13:01:07.765Z,101429.09
2023-07-14T13:03:45.161Z,101422.34
2023-07-14T13:06:29.013Z,101429.16
2023-07-14T13:09:15.432Z,101430.78
2023-07-14T13:11:55.468Z,101432.34
2023-07-14T13:14:29.459Z,101433.13
2023-07-14T13:17:00.460Z,101440.34
2023-07-14T13:19:47.559Z,101444.38
2023-07-14T13:22:41.401Z,101443.16
2023-07-14T13:25:21.999Z,101457.13
2023-07-14T13:27:55.196Z,101454.75
2023-07-14T13:30:34.621Z,101449.16
2023-07-14T13:33:18.814Z,101452.34
2023-07-14T13:35:58.385Z,101462.31
2023-07-14T13:38:51.935Z,101468.31
2023-07-14T13:41:27.251Z,101468.28
2023-07-14T13:44:56.575Z,101465.91
2023-07-14T13:47:47.727Z,101467.50
2023-07-14T13:51:04.777Z,101465.50
2023-07-14T13:53:35.196Z,101466.63
2023-07-14T13:56:50.194Z,101458.66
2023-07-14T14:00:14.418Z,101463.50
2023-07-14T14:03:02.604Z,101463.13
2023-07-14T14:05:52.343Z,101457.94
2023-07-14T14:08:21.594Z,101447.56
2023-07-14T14:10:51.323Z,101448.31
2023-07-14T14:13:23.280Z,101444.28
2023-07-14T14:15:55.550Z,101446.66
2023-07-14T14:18:42.545Z,101443.50
2023-07-14T14:21:19.474Z,101458.34
2023-07-14T14:24:01.301Z,101459.16
2023-07-14T14:26:30.664Z,101468.72
2023-07-14T14:28:59.760Z,101472.31
2023-07-14T14:31:39.301Z,101473.91
2023-07-14T14:34:18.610Z,101472.31
2023-07-14T14:36:47.831Z,101482.72
2023-07-14T14:39:23.464Z,101477.91
2023-07-14T14:41:54.203Z,101484.28
2023-07-14T14:44:25.083Z,101481.91
2023-07-14T14:46:57.266Z,101484.28
2023-07-14T14:49:26.547Z,101489.50
2023-07-14T14:51:56.869Z,101487.91
2023-07-14T14:54:31.602Z,101489.06
2023-07-14T14:57:17.676Z,101494.66
2023-07-14T14:59:54.147Z,101492.25
2023-07-14T15:02:27.856Z,101499.03
2023-07-14T15:05:35.273Z,101489.84
2023-07-14T15:09:18.550Z,101498.63
2023-07-14T15:11:19.839Z,101497.03
2023-07-14T15:13:55.964Z,101493.81
2023-07-14T15:16:25.271Z,101496.22
2023-07-14T15:19:00.417Z,101499.41
2023-07-14T15:21:30.251Z,101492.59
2023-07-14T15:24:00.531Z,101487.34
2023-07-14T15:26:49.350Z,101494.16
2023-07-14T15:29:25.073Z,101497.72
2023-07-14T15:32:30.345Z,101500.13
2023-07-14T15:36:02.280Z,101501.28
2023-07-14T15:39:13.609Z,101509.25
2023-07-14T15:45:29.034Z,101500.44
2023-07-14T15:48:01.150Z,101506.28
2023-07-14T15:51:13.050Z,101514.19
2023-07-14T15:53:50.127Z,101513.75
2023-07-14T15:56:25.229Z,101510.88
2023-07-14T15:58:58.159Z,101520.38
2023-07-14T16:01:32.098Z,101521.03
2023-07-14T16:04:03.702Z,101521.78
2023-07-14T16:06:40.587Z,101532.09
2023-07-14T16:09:22.531Z,101528.97
2023-07-14T16:12:15.956Z,101533.56
2023-07-14T16:14:48.029Z,101530.34
2023-07-14T16:17:17.258Z,101534.38
2023-07-14T16:19:48.894Z,101533.16
2023-07-14T16:22:24.944Z,101534.94
2023-07-14T16:24:54.327Z,101533.94
2023-07-14T16:30:45.581Z,101536.34
2023-07-14T16:33:14.825Z,101534.53
2023-07-14T16:36:15.875Z,101536.03
2023-07-14T16:39:41.539Z,101527.25
2023-07-14T16:42:31.619Z,101534.72
2023-07-14T16:45:04.563Z,101532.72
2023-07-14T17:03:35.352Z,101514.97
2023-07-14T17:06:46.243Z,101509.59
2023-07-14T17:09:26.889Z,101511.69
2023-07-14T17:12:15.450Z,101512.53
2023-07-14T17:17:49.297Z,101511.06
2023-07-14T17:18:57.060Z,101512.94
2023-07-14T17:21:37.004Z,101514.53
2023-07-14T17:24:39.919Z,101516.53
2023-07-14T17:27:23.499Z,101509.50
2023-07-14T17:29:59.661Z,101512.34
2023-07-14T17:32:30.615Z,101504.00
2023-07-14T17:34:59.633Z,101503.03
2023-07-14T17:37:30.460Z,101502.69
2023-07-14T17:40:02.735Z,101506.75
2023-07-14T17:42:31.930Z,101503.75
2023-07-14T17:45:01.003Z,101500.13
2023-07-14T17:47:30.706Z,101500.34
2023-07-14T17:50:02.828Z,101495.97
2023-07-14T17:52:32.188Z,101495.16
2023-07-14T17:55:08.857Z,101497.56
2023-07-14T17:57:38.693Z,101494.78
2023-07-14T18:00:08.488Z,101498.66
2023-07-14T18:02:39.982Z,101498.34
2023-07-14T18:05:30.154Z,101495.59
2023-07-14T18:08:00.912Z,101489.50
2023-07-14T18:10:31.766Z,101494.59
2023-07-14T18:13:13.418Z,101488.81
2023-07-14T18:16:23.776Z,101489.28
2023-07-14T18:18:59.123Z,101488.81
2023-07-14T18:21:34.106Z,101482.81
2023-07-14T18:24:37.630Z,101483.34
2023-07-14T18:27:19.436Z,101488.13
2023-07-14T18:29:48.674Z,101485.25
2023-07-14T18:32:18.034Z,101485.44
2023-07-14T18:35:08.683Z,101481.78
2023-07-14T18:37:50.854Z,101479.63
2023-07-14T18:40:27.633Z,101474.66
2023-07-14T18:45:56.133Z,101469.31
2023-07-14T18:48:29.947Z,101464.78
2023-07-14T18:51:29.776Z,101476.41
2023-07-14T18:54:18.503Z,101464.69
2023-07-14T18:56:53.816Z,101448.22
2023-07-14T18:59:23.199Z,101453.59
2023-07-14T19:01:52.788Z,101460.47
2023-07-14T19:04:22.582Z,101454.09
2023-07-14T19:07:00.102Z,101456.16
2023-07-14T19:09:35.820Z,101456.78
2023-07-14T19:12:07.707Z,101454.88
2023-07-14T19:14:39.949Z,101454.84
2023-07-14T19:17:22.071Z,101458.28
2023-07-14T19:20:01.480Z,101455.56
2023-07-14T19:22:36.582Z,101459.78
2023-07-14T19:26:13.022Z,101456.94
2023-07-14T19:28:54.264Z,101455.88
2023-07-14T19:31:47.102Z,101456.09
2023-07-14T19:34:47.088Z,101449.13
2023-07-14T19:37:53.324Z,101459.50
2023-07-14T19:40:35.303Z,101452.28
2023-07-14T19:43:38.742Z,101442.16
2023-07-14T19:46:15.465Z,101445.84
2023-07-14T19:49:12.622Z,101445.94
2023-07-14T19:51:46.657Z,101445.72
2023-07-14T19:54:43.944Z,101444.59
2023-07-14T19:57:21.613Z,101444.91
2023-07-14T20:00:00.674Z,101443.06
2023-07-14T20:02:31.171Z,101442.81
2023-07-14T20:05:04.158Z,101436.88
2023-07-14T20:07:34.279Z,101446.28
2023-07-14T20:10:23.403Z,101436.25
2023-07-14T20:13:52.394Z,101435.63
2023-07-14T20:16:23.027Z,101443.50
2023-07-14T20:18:52.618Z,101431.72
2023-07-14T20:21:38.176Z,101421.19
2023-07-14T20:24:23.372Z,101424.91
2023-07-14T20:26:57.619Z,101411.84
2023-07-14T20:29:26.894Z,101414.97
2023-07-14T20:32:01.723Z,101415.16
2023-07-14T20:34:30.996Z,101412.97
2023-07-14T20:37:03.144Z,101410.78
2023-07-14T20:39:41.390Z,101407.06
2023-07-14T20:42:19.769Z,101405.50
2023-07-14T20:44:51.664Z,101409.53
2023-07-14T20:47:23.220Z,101407.28
2023-07-14T20:49:52.525Z,101399.53
2023-07-14T20:52:30.772Z,101402.38
2023-07-14T20:55:04.914Z,101405.06
2023-07-14T20:57:42.212Z,101405.84
2023-07-14T21:00:26.496Z,101407.81
2023-07-14T21:02:56.083Z,101407.66
2023-07-14T21:05:29.784Z,101404.09
2023-07-14T21:08:10.064Z,101400.38
2023-07-14T21:10:47.699Z,101401.47
2023-07-14T21:13:25.322Z,101388.97
2023-07-14T21:15:57.621Z,101388.56
2023-07-14T21:18:44.600Z,101392.56
2023-07-14T21:21:35.488Z,101387.69
2023-07-14T21:24:22.396Z,101385.25
2023-07-14T21:27:16.465Z,101379.44
2023-07-14T21:29:53.628Z,101381.00
2023-07-14T21:32:49.665Z,101373.31
2023-07-14T21:35:36.848Z,101365.81
2023-07-14T21:38:17.157Z,101366.69
2023-07-14T21:41:05.047Z,101374.56
2023-07-14T21:43:42.936Z,101371.28
2023-07-14T21:46:25.454Z,101370.41
2023-07-14T21:48:55.261Z,101362.66
2023-07-14T21:51:31.951Z,101375.03
2023-07-14T21:54:38.318Z,101365.72
2023-07-14T21:57:12.207Z,101354.25
2023-07-14T21:59:50.490Z,101356.19
2023-07-14T22:02:24.101Z,101357.28
2023-07-14T22:05:01.774Z,101354.09
2023-07-14T22:07:33.811Z,101357.53
2023-07-14T22:10:07.108Z,101350.38
2023-07-14T22:12:39.268Z,101342.88
2023-07-14T22:15:24.505Z,101347.50
2023-07-14T22:18:00.382Z,101347.03
2023-07-14T22:20:30.690Z,101355.38
2023-07-14T22:23:06.200Z,101356.19
2023-07-14T22:25:38.245Z,101349.03
2023-07-14T22:28:13.738Z,101346.44
2023-07-14T22:30:50.233Z,101350.94
2023-07-14T22:33:37.765Z,101355.66
2023-07-14T22:36:15.715Z,101348.03
2023-07-14T22:38:54.686Z,101346.69
2023-07-14T22:41:36.821Z,101344.13
2023-07-14T22:44:06.728Z,101350.53
2023-07-14T22:46:47.742Z,101342.81
2023-07-14T22:49:23.140Z,101343.44
2023-07-14T22:51:55.787Z,101345.06
2023-07-14T22:54:34.141Z,101345.78
2023-07-14T22:57:06.087Z,101340.72
2023-07-14T22:59:37.136Z,101342.63
2023-07-14T23:02:06.700Z,101338.06
2023-07-14T23:04:35.968Z,101345.91
2023-07-14T23:07:07.038Z,101341.22
2023-07-14T23:09:47.308Z,101337.13
2023-07-14T23:12:23.656Z,101334.94
2023-07-14T23:14:54.750Z,101326.59
2023-07-14T23:17:27.761Z,101330.41
2023-07-14T23:20:15.185Z,101323.41
2023-07-14T23:22:47.029Z,101323.94
2023-07-14T23:25:50.504Z,101317.84
2023-07-14T23:28:26.041Z,101316.75
2023-07-14T23:30:57.860Z,101308.91
2023-07-14T23:33:26.903Z,101317.75
2023-07-14T23:35:58.494Z,101311.66
2023-07-14T23:38:27.879Z,101311.66
2023-07-14T23:40:57.237Z,101313.75
2023-07-14T23:43:32.367Z,101305.41
2023-07-14T23:46:17.883Z,101310.09
2023-07-14T23:48:47.326Z,101301.50
2023-07-14T23:51:19.154Z,101301.25
2023-07-14T23:53:57.474Z,101295.22
2023-07-14T23:56:43.180Z,101295.78
2023-07-14T23:59:18.697Z,101298.63
